createdAt,value
2019-03-28T00:00:00.601Z,12.40
2019-03-28T00:01:00.592Z,12.60
2019-03-28T00:02:00.587Z,12.30
2019-03-28T00:03:00.567Z,12.40
2019-03-28T00:04:00.568Z,13.20
2019-03-28T00:05:00.550Z,13.70
2019-03-28T00:06:00.559Z,12.80
2019-03-28T00:07:00.542Z,12.20
2019-03-28T00:08:00.511Z,13.10
2019-03-28T00:09:00.511Z,11.80
2019-03-28T00:10:00.493Z,11.70
2019-03-28T00:11:00.484Z,12.90
2019-03-28T00:12:00.471Z,12.60
2019-03-28T00:13:00.461Z,12.30
2019-03-28T00:14:00.455Z,12.90
2019-03-28T00:15:00.438Z,12.50
2019-03-28T00:16:00.426Z,13.00
2019-03-28T00:17:00.415Z,11.80
2019-03-28T00:18:00.407Z,12.20
2019-03-28T00:19:00.407Z,13.10
2019-03-28T00:20:00.408Z,12.70
2019-03-28T00:21:01.092Z,13.10
2019-03-28T00:22:00.364Z,13.10
2019-03-28T00:23:00.363Z,12.80
2019-03-28T00:24:00.360Z,12.60
2019-03-28T00:25:00.331Z,13.30
2019-03-28T00:26:00.312Z,13.20
2019-03-28T00:27:00.304Z,12.60
2019-03-28T00:28:00.300Z,13.00
2019-03-28T00:29:00.292Z,13.10
2019-03-28T00:30:00.304Z,13.20
2019-03-28T00:31:00.263Z,13.10
2019-03-28T00:32:00.445Z,13.90
2019-03-28T00:33:00.245Z,13.10
2019-03-28T00:34:00.251Z,13.20
2019-03-28T00:35:00.695Z,13.50
2019-03-28T00:36:00.209Z,13.20
2019-03-28T00:37:00.200Z,13.80
2019-03-28T00:38:00.329Z,14.40
2019-03-28T00:39:00.176Z,13.70
2019-03-28T00:40:00.283Z,14.10
2019-03-28T00:41:00.151Z,13.60
2019-03-28T00:42:00.741Z,14.40
2019-03-28T00:43:00.373Z,13.20
2019-03-28T00:44:00.123Z,13.10
2019-03-28T00:45:00.119Z,13.50
2019-03-28T00:46:00.114Z,14.10
2019-03-28T00:47:00.088Z,13.40
2019-03-28T00:48:00.075Z,13.30
2019-03-28T00:49:00.063Z,13.60
2019-03-28T00:50:00.065Z,14.20
2019-03-28T00:51:00.236Z,14.70
2019-03-28T00:52:00.055Z,14.30
2019-03-28T00:53:00.049Z,13.30
2019-03-28T00:54:00.018Z,13.80
2019-03-28T00:55:00.006Z,13.90
2019-03-28T00:55:59.992Z,13.80
2019-03-28T00:56:59.989Z,13.10
2019-03-28T00:57:59.982Z,14.10
2019-03-28T00:58:59.974Z,14.30
2019-03-28T00:59:59.948Z,13.30
2019-03-28T01:00:59.933Z,13.70
2019-03-28T01:01:59.932Z,14.10
2019-03-28T01:02:59.947Z,13.90
2019-03-28T01:03:59.908Z,14.60
2019-03-28T01:04:59.908Z,15.00
2019-03-28T01:05:59.901Z,14.10
2019-03-28T01:06:59.871Z,14.90
2019-03-28T01:07:59.870Z,15.40
2019-03-28T01:08:59.861Z,14.80
2019-03-28T01:09:59.851Z,14.90
2019-03-28T01:10:59.829Z,14.40
2019-03-28T01:11:59.815Z,14.90
2019-03-28T01:12:59.802Z,15.20
2019-03-28T01:13:59.801Z,15.40
2019-03-28T01:14:59.804Z,14.60
2019-03-28T01:15:59.795Z,15.00
2019-03-28T01:16:59.767Z,15.50
2019-03-28T01:17:59.755Z,15.20
2019-03-28T01:18:59.741Z,14.20
2019-03-28T01:20:00.186Z,14.50
2019-03-28T01:20:59.716Z,14.70
2019-03-28T01:21:59.731Z,14.80
2019-03-28T01:22:59.701Z,14.60
2019-03-28T01:23:59.690Z,14.80
2019-03-28T01:24:59.699Z,14.80
2019-03-28T01:25:59.675Z,15.30
2019-03-28T01:26:59.658Z,15.70
2019-03-28T01:27:59.646Z,14.50
2019-03-28T01:28:59.651Z,14.50
2019-03-28T01:29:59.621Z,14.60
2019-03-28T01:30:59.625Z,14.30
2019-03-28T01:31:59.608Z,14.30
2019-03-28T01:32:59.586Z,14.90
2019-03-28T01:33:59.589Z,14.80
2019-03-28T01:34:59.574Z,14.70
2019-03-28T01:35:59.571Z,14.20
2019-03-28T01:36:59.559Z,14.30
2019-03-28T01:37:59.537Z,15.20
2019-03-28T01:38:59.544Z,15.20
2019-03-28T01:40:00.269Z,15.10
2019-03-28T01:40:59.511Z,14.70
2019-03-28T01:41:59.505Z,14.40
2019-03-28T01:42:59.488Z,15.00
2019-03-28T01:43:59.479Z,14.40
2019-03-28T01:44:59.475Z,15.00
2019-03-28T01:45:59.504Z,14.70
2019-03-28T01:46:59.445Z,13.90
2019-03-28T01:47:59.475Z,15.80
2019-03-28T01:48:59.426Z,14.60
2019-03-28T01:49:59.466Z,15.00
2019-03-28T01:50:59.402Z,14.90
2019-03-28T01:51:59.400Z,14.30
2019-03-28T01:52:59.376Z,13.40
2019-03-28T01:53:59.373Z,13.80
2019-03-28T01:54:59.375Z,15.10
2019-03-28T01:55:59.356Z,13.80
2019-03-28T01:57:10.296Z,14.70
2019-03-28T01:58:00.331Z,14.20
2019-03-28T01:58:59.322Z,14.50
2019-03-28T01:59:59.306Z,13.90
2019-03-28T02:00:59.313Z,14.90
2019-03-28T02:01:59.295Z,14.90
2019-03-28T02:02:59.273Z,15.00
2019-03-28T02:03:59.270Z,14.20
2019-03-28T02:04:59.252Z,14.20
2019-03-28T02:05:59.269Z,14.10
2019-03-28T02:06:59.465Z,14.70
2019-03-28T02:07:59.222Z,14.60
2019-03-28T02:08:59.211Z,14.70
2019-03-28T02:09:59.199Z,14.50
2019-03-28T02:10:59.192Z,14.60
2019-03-28T02:11:59.213Z,14.80
2019-03-28T02:12:59.178Z,15.40
2019-03-28T02:13:59.155Z,14.60
2019-03-28T02:14:59.158Z,14.60
2019-03-28T02:15:59.151Z,15.80
2019-03-28T02:16:59.137Z,15.00
2019-03-28T02:17:59.143Z,15.40
2019-03-28T02:18:59.120Z,15.70
2019-03-28T02:19:59.095Z,15.80
2019-03-28T02:20:59.088Z,15.30
2019-03-28T02:21:59.070Z,14.30
2019-03-28T02:22:59.073Z,16.40
2019-03-28T02:23:59.057Z,17.00
2019-03-28T02:24:59.051Z,15.80
2019-03-28T02:25:59.036Z,15.60
2019-03-28T02:26:59.316Z,14.70
2019-03-28T02:27:59.016Z,14.90
2019-03-28T02:28:58.998Z,14.90
2019-03-28T02:29:59.010Z,14.30
2019-03-28T02:30:58.992Z,15.20
2019-03-28T02:31:58.969Z,14.20
2019-03-28T02:32:59.929Z,14.80
2019-03-28T02:33:58.945Z,15.20
2019-03-28T02:34:58.958Z,15.50
2019-03-28T02:35:58.941Z,15.10
2019-03-28T02:36:58.916Z,15.30
2019-03-28T02:37:58.918Z,14.90
2019-03-28T02:38:58.954Z,15.00
2019-03-28T02:39:58.886Z,14.60
2019-03-28T02:40:58.891Z,14.70
2019-03-28T02:41:58.871Z,15.00
2019-03-28T02:42:58.866Z,14.70
2019-03-28T02:43:58.843Z,14.90
2019-03-28T02:44:58.856Z,14.90
2019-03-28T02:45:58.819Z,14.90
2019-03-28T02:46:58.809Z,14.70
2019-03-28T02:47:58.845Z,14.50
2019-03-28T02:48:58.808Z,14.30
2019-03-28T02:49:58.785Z,14.80
2019-03-28T02:50:58.776Z,14.80
2019-03-28T02:51:58.759Z,15.60
2019-03-28T02:52:58.763Z,15.20
2019-03-28T02:53:58.747Z,14.10
2019-03-28T02:54:58.723Z,14.20
2019-03-28T02:55:58.713Z,14.70
2019-03-28T02:56:58.700Z,15.20
2019-03-28T02:57:58.727Z,14.80
2019-03-28T02:58:58.687Z,15.90
2019-03-28T02:59:58.675Z,15.80
2019-03-28T03:00:58.663Z,15.30
2019-03-28T03:01:58.653Z,15.80
2019-03-28T03:02:58.641Z,15.10
2019-03-28T03:03:58.641Z,15.00
2019-03-28T03:04:58.644Z,15.30
2019-03-28T03:05:58.605Z,15.40
2019-03-28T03:06:58.602Z,15.00
2019-03-28T03:07:58.584Z,15.40
2019-03-28T03:08:59.621Z,15.60
2019-03-28T03:09:58.569Z,16.80
2019-03-28T03:10:58.590Z,15.20
2019-03-28T03:11:58.548Z,15.10
2019-03-28T03:12:58.539Z,15.00
2019-03-28T03:13:58.520Z,15.80
2019-03-28T03:14:58.518Z,15.80
2019-03-28T03:15:58.522Z,15.50
2019-03-28T03:16:58.497Z,16.90
2019-03-28T03:17:58.523Z,16.90
2019-03-28T03:18:59.752Z,15.00
2019-03-28T03:19:58.459Z,15.90
2019-03-28T03:20:58.468Z,15.90
2019-03-28T03:21:58.436Z,15.80
2019-03-28T03:22:58.426Z,16.20
2019-03-28T03:23:58.415Z,15.90
2019-03-28T03:24:58.409Z,16.20
2019-03-28T03:25:58.398Z,16.10
2019-03-28T03:26:58.392Z,16.50
2019-03-28T03:27:59.424Z,16.00
2019-03-28T03:28:58.361Z,15.00
2019-03-28T03:29:58.354Z,16.40
2019-03-28T03:30:58.337Z,15.50
2019-03-28T03:31:58.340Z,15.90
2019-03-28T03:32:58.333Z,16.90
2019-03-28T03:33:58.340Z,17.20
2019-03-28T03:34:58.376Z,17.10
2019-03-28T03:35:58.301Z,15.80
2019-03-28T03:36:58.283Z,15.50
2019-03-28T03:37:58.283Z,15.90
2019-03-28T03:38:58.258Z,15.70
2019-03-28T03:39:58.244Z,15.00
2019-03-28T03:40:58.234Z,16.60
2019-03-28T03:41:58.231Z,16.70
2019-03-28T03:42:58.216Z,16.80
2019-03-28T03:43:58.232Z,16.60
2019-03-28T03:44:58.198Z,16.20
2019-03-28T03:45:58.177Z,18.10
2019-03-28T03:46:58.173Z,16.60
2019-03-28T03:47:58.163Z,15.80
2019-03-28T03:48:58.154Z,16.10
2019-03-28T03:49:58.151Z,16.10
2019-03-28T03:50:58.133Z,16.40
2019-03-28T03:51:58.118Z,15.90
2019-03-28T03:52:58.108Z,15.70
2019-03-28T03:53:58.101Z,16.00
2019-03-28T03:54:58.100Z,16.60
2019-03-28T03:55:58.078Z,15.50
2019-03-28T03:56:58.094Z,15.80
2019-03-28T03:58:14.209Z,16.80
2019-03-28T03:58:59.041Z,16.90
2019-03-28T03:59:58.052Z,16.80
2019-03-28T04:00:58.024Z,15.80
2019-03-28T04:01:58.018Z,16.60
2019-03-28T04:02:58.004Z,17.00
2019-03-28T04:03:57.990Z,15.70
2019-03-28T04:04:57.976Z,15.30
2019-03-28T04:05:57.990Z,15.70
2019-03-28T04:06:57.972Z,15.20
2019-03-28T04:07:57.952Z,15.60
2019-03-28T04:08:57.942Z,16.20
2019-03-28T04:09:57.929Z,15.90
2019-03-28T04:10:57.934Z,16.20
2019-03-28T04:11:57.933Z,15.90
2019-03-28T04:12:57.903Z,16.30
2019-03-28T04:13:57.885Z,15.00
2019-03-28T04:14:57.884Z,15.50
2019-03-28T04:15:57.867Z,15.30
2019-03-28T04:16:57.877Z,16.90
2019-03-28T04:17:57.870Z,15.20
2019-03-28T04:18:57.839Z,15.50
2019-03-28T04:19:58.708Z,15.90
2019-03-28T04:20:57.811Z,15.80
2019-03-28T04:21:57.809Z,15.70
2019-03-28T04:22:57.818Z,15.90
2019-03-28T04:23:57.784Z,16.10
2019-03-28T04:24:57.781Z,17.00
2019-03-28T04:25:57.768Z,17.40
2019-03-28T04:26:57.764Z,16.70
2019-03-28T04:27:57.760Z,16.50
2019-03-28T04:28:57.764Z,16.70
2019-03-28T04:29:57.722Z,16.30
2019-03-28T04:30:57.712Z,15.30
2019-03-28T04:31:57.702Z,16.10
2019-03-28T04:32:57.709Z,15.30
2019-03-28T04:33:57.695Z,15.60
2019-03-28T04:34:57.673Z,16.00
2019-03-28T04:35:57.658Z,15.60
2019-03-28T04:36:57.651Z,15.00
2019-03-28T04:37:58.610Z,15.60
2019-03-28T04:38:57.649Z,15.80
2019-03-28T04:39:57.645Z,16.30
2019-03-28T04:40:57.603Z,15.50
2019-03-28T04:41:57.598Z,15.80
2019-03-28T04:42:57.608Z,15.80
2019-03-28T04:43:57.587Z,15.30
2019-03-28T04:44:57.567Z,15.20
2019-03-28T04:45:57.548Z,14.60
2019-03-28T04:46:57.540Z,15.20
2019-03-28T04:47:57.529Z,15.10
2019-03-28T04:48:57.531Z,15.20
2019-03-28T04:49:57.547Z,15.00
2019-03-28T04:50:57.505Z,15.70
2019-03-28T04:51:57.488Z,16.40
2019-03-28T04:52:57.502Z,16.00
2019-03-28T04:53:57.470Z,16.70
2019-03-28T04:54:57.466Z,17.60
2019-03-28T04:55:57.462Z,16.60
2019-03-28T04:56:57.438Z,17.60
2019-03-28T04:57:57.450Z,16.90
2019-03-28T04:58:57.449Z,17.40
2019-03-28T04:59:57.413Z,16.90
2019-03-28T05:00:57.402Z,16.50
2019-03-28T05:02:02.971Z,16.80
2019-03-28T05:02:58.372Z,16.10
2019-03-28T05:03:57.364Z,15.90
2019-03-28T05:04:57.352Z,17.10
2019-03-28T05:05:57.353Z,16.70
2019-03-28T05:06:57.336Z,15.80
2019-03-28T05:07:57.316Z,16.10
2019-03-28T05:08:57.311Z,16.10
2019-03-28T05:09:57.291Z,15.50
2019-03-28T05:10:57.287Z,15.30
2019-03-28T05:11:57.287Z,16.60
2019-03-28T05:12:57.259Z,16.00
2019-03-28T05:13:57.255Z,16.00
2019-03-28T05:14:57.245Z,15.60
2019-03-28T05:15:57.363Z,15.90
2019-03-28T05:16:57.237Z,15.70
2019-03-28T05:17:57.219Z,15.80
2019-03-28T05:18:57.544Z,15.10
2019-03-28T05:19:57.191Z,16.30
2019-03-28T05:20:57.182Z,16.00
2019-03-28T05:21:57.171Z,15.60
2019-03-28T05:22:57.173Z,15.30
2019-03-28T05:23:57.148Z,15.40
2019-03-28T05:24:57.133Z,15.80
2019-03-28T05:25:57.146Z,16.30
2019-03-28T05:26:57.117Z,16.60
2019-03-28T05:27:57.126Z,15.90
2019-03-28T05:28:58.139Z,15.60
2019-03-28T05:29:57.079Z,15.80
2019-03-28T05:30:57.072Z,16.30
2019-03-28T05:31:57.063Z,15.30
2019-03-28T05:32:57.061Z,15.10
2019-03-28T05:33:57.099Z,16.10
2019-03-28T05:34:57.035Z,16.20
2019-03-28T05:35:57.023Z,16.70
2019-03-28T05:36:57.021Z,16.60
2019-03-28T05:37:57.013Z,16.20
2019-03-28T05:38:57.004Z,16.40
2019-03-28T05:39:56.981Z,16.60
2019-03-28T05:40:56.989Z,16.30
2019-03-28T05:41:56.954Z,16.30
2019-03-28T05:42:56.948Z,15.60
2019-03-28T05:43:56.951Z,16.20
2019-03-28T05:44:56.936Z,15.80
2019-03-28T05:45:56.922Z,16.30
2019-03-28T05:46:56.908Z,15.40
2019-03-28T05:47:56.901Z,15.80
2019-03-28T05:48:56.905Z,15.20
2019-03-28T05:49:56.883Z,15.80
2019-03-28T05:50:56.861Z,15.80
2019-03-28T05:51:56.849Z,16.80
2019-03-28T05:52:56.839Z,15.70
2019-03-28T05:53:56.854Z,15.90
2019-03-28T05:54:56.820Z,16.30
2019-03-28T05:55:56.808Z,15.30
2019-03-28T05:56:56.797Z,15.40
2019-03-28T05:57:56.794Z,15.20
2019-03-28T05:59:09.815Z,15.70
2019-03-28T05:59:57.765Z,16.60
2019-03-28T06:00:56.760Z,15.30
2019-03-28T06:01:56.754Z,15.60
2019-03-28T06:02:56.730Z,15.50
2019-03-28T06:03:56.723Z,16.40
2019-03-28T06:04:56.731Z,17.10
2019-03-28T06:05:56.704Z,17.10
2019-03-28T06:06:56.692Z,17.50
2019-03-28T06:07:56.689Z,17.50
2019-03-28T06:08:56.679Z,16.10
2019-03-28T06:09:56.653Z,17.10
2019-03-28T06:10:56.660Z,17.30
2019-03-28T06:11:56.652Z,17.70
2019-03-28T06:12:56.637Z,17.30
2019-03-28T06:13:56.610Z,16.40
2019-03-28T06:14:56.611Z,16.60
2019-03-28T06:15:56.591Z,17.80
2019-03-28T06:16:56.577Z,16.90
2019-03-28T06:17:56.571Z,16.70
2019-03-28T06:18:56.574Z,16.40
2019-03-28T06:19:56.564Z,17.60
2019-03-28T06:20:59.440Z,17.50
2019-03-28T06:21:56.524Z,17.30
2019-03-28T06:22:56.520Z,17.10
2019-03-28T06:23:56.519Z,18.00
2019-03-28T06:24:56.565Z,18.20
2019-03-28T06:25:56.509Z,17.30
2019-03-28T06:26:56.479Z,18.80
2019-03-28T06:27:56.464Z,17.90
2019-03-28T06:28:56.463Z,18.30
2019-03-28T06:29:56.447Z,18.20
2019-03-28T06:30:56.456Z,17.10
2019-03-28T06:31:56.468Z,16.70
2019-03-28T06:32:58.919Z,17.40
2019-03-28T06:33:56.397Z,16.90
2019-03-28T06:34:56.400Z,17.60
2019-03-28T06:35:56.376Z,16.70
2019-03-28T06:36:56.382Z,16.70
2019-03-28T06:37:56.365Z,16.90
2019-03-28T06:38:56.357Z,16.60
2019-03-28T06:39:56.337Z,16.90
2019-03-28T06:40:57.303Z,16.70
2019-03-28T06:41:56.311Z,17.00
2019-03-28T06:42:56.316Z,16.30
2019-03-28T06:43:56.296Z,17.20
2019-03-28T06:44:56.313Z,17.60
2019-03-28T06:45:56.272Z,16.80
2019-03-28T06:46:56.258Z,17.60
2019-03-28T06:47:56.283Z,16.80
2019-03-28T06:48:56.235Z,17.70
2019-03-28T06:49:56.243Z,16.80
2019-03-28T06:50:56.220Z,17.80
2019-03-28T06:51:56.208Z,17.30
2019-03-28T06:52:56.201Z,16.90
2019-03-28T06:53:57.232Z,16.90
2019-03-28T06:54:56.468Z,17.80
2019-03-28T06:55:56.165Z,17.30
2019-03-28T06:56:56.152Z,17.30
2019-03-28T06:57:56.161Z,17.30
2019-03-28T06:58:56.134Z,17.30
2019-03-28T06:59:56.134Z,17.40
2019-03-28T07:00:56.120Z,18.20
2019-03-28T07:01:56.103Z,17.90
2019-03-28T07:02:56.090Z,17.20
2019-03-28T07:03:56.080Z,18.00
2019-03-28T07:04:56.413Z,17.20
2019-03-28T07:05:56.065Z,17.90
2019-03-28T07:06:56.045Z,17.60
2019-03-28T07:07:56.056Z,18.30
2019-03-28T07:08:56.020Z,17.70
2019-03-28T07:09:56.017Z,19.10
2019-03-28T07:10:58.009Z,18.10
2019-03-28T07:11:55.995Z,18.40
2019-03-28T07:12:56.008Z,18.20
2019-03-28T07:13:55.967Z,17.60
2019-03-28T07:14:55.958Z,17.50
2019-03-28T07:15:55.949Z,17.80
2019-03-28T07:16:56.011Z,17.60
2019-03-28T07:17:55.942Z,17.40
2019-03-28T07:18:55.915Z,17.70
2019-03-28T07:19:55.904Z,18.20
2019-03-28T07:20:55.901Z,17.20
2019-03-28T07:21:55.888Z,17.90
2019-03-28T07:22:55.877Z,18.00
2019-03-28T07:23:55.885Z,17.90
2019-03-28T07:24:55.856Z,17.70
2019-03-28T07:25:55.836Z,17.50
2019-03-28T07:26:55.833Z,17.80
2019-03-28T07:27:55.820Z,17.30
2019-03-28T07:28:55.820Z,17.00
2019-03-28T07:29:55.801Z,17.40
2019-03-28T07:30:55.823Z,17.60
2019-03-28T07:31:55.794Z,17.10
2019-03-28T07:32:55.760Z,17.30
2019-03-28T07:33:55.769Z,17.50
2019-03-28T07:34:55.745Z,17.20
2019-03-28T07:35:55.736Z,17.30
2019-03-28T07:36:55.726Z,18.50
2019-03-28T07:37:55.723Z,17.10
2019-03-28T07:38:55.704Z,16.50
2019-03-28T07:39:55.692Z,16.40
2019-03-28T07:40:55.677Z,16.10
2019-03-28T07:41:55.685Z,17.50
2019-03-28T07:42:55.661Z,17.30
2019-03-28T07:43:55.661Z,16.70
2019-03-28T07:44:55.639Z,17.00
2019-03-28T07:45:55.622Z,16.30
2019-03-28T07:46:55.615Z,16.80
2019-03-28T07:47:55.605Z,17.70
2019-03-28T07:48:55.595Z,16.20
2019-03-28T07:49:55.596Z,17.20
2019-03-28T07:50:55.574Z,17.00
2019-03-28T07:51:55.560Z,16.10
2019-03-28T07:52:55.546Z,16.60
2019-03-28T07:53:55.545Z,17.00
2019-03-28T07:54:55.528Z,17.10
2019-03-28T07:55:55.528Z,17.00
2019-03-28T07:56:55.534Z,17.70
2019-03-28T07:57:55.493Z,17.00
2019-03-28T07:58:55.483Z,17.30
2019-03-28T08:00:04.008Z,17.40
2019-03-28T08:00:56.482Z,17.20
2019-03-28T08:01:55.454Z,17.20
2019-03-28T08:02:58.355Z,17.30
2019-03-28T08:03:55.427Z,17.10
2019-03-28T08:04:55.420Z,16.60
2019-03-28T08:05:55.423Z,16.60
2019-03-28T08:06:55.411Z,17.70
2019-03-28T08:07:55.387Z,17.20
2019-03-28T08:08:55.383Z,17.00
2019-03-28T08:09:55.367Z,17.20
2019-03-28T08:10:55.353Z,17.00
2019-03-28T08:11:55.356Z,17.20
2019-03-28T08:12:55.327Z,16.80
2019-03-28T08:13:55.325Z,16.10
2019-03-28T08:14:55.314Z,16.30
2019-03-28T08:15:55.304Z,16.20
2019-03-28T08:16:55.295Z,15.70
2019-03-28T08:17:55.286Z,16.30
2019-03-28T08:18:55.264Z,15.60
2019-03-28T08:19:55.275Z,16.40
2019-03-28T08:20:55.250Z,16.50
2019-03-28T08:21:55.324Z,16.70
2019-03-28T08:22:55.222Z,16.50
2019-03-28T08:23:55.211Z,15.90
2019-03-28T08:24:55.199Z,15.80
2019-03-28T08:25:55.194Z,16.90
2019-03-28T08:26:55.192Z,16.20
2019-03-28T08:27:57.625Z,16.10
2019-03-28T08:28:55.160Z,16.40
2019-03-28T08:29:57.743Z,16.80
2019-03-28T08:30:55.133Z,17.10
2019-03-28T08:31:55.125Z,16.90
2019-03-28T08:32:55.162Z,16.40
2019-03-28T08:33:55.120Z,17.00
2019-03-28T08:34:55.099Z,16.30
2019-03-28T08:35:55.097Z,17.40
2019-03-28T08:36:55.072Z,16.70
2019-03-28T08:37:55.062Z,16.80
2019-03-28T08:38:55.056Z,16.70
2019-03-28T08:39:55.675Z,16.30
2019-03-28T08:40:55.040Z,17.50
2019-03-28T08:41:55.024Z,16.80
2019-03-28T08:42:55.021Z,17.40
2019-03-28T08:43:54.991Z,17.90
2019-03-28T08:44:54.998Z,17.80
2019-03-28T08:45:54.988Z,17.60
2019-03-28T08:46:54.966Z,17.90
2019-03-28T08:47:54.952Z,17.30
2019-03-28T08:48:54.948Z,18.10
2019-03-28T08:49:54.930Z,18.10
2019-03-28T08:50:54.982Z,18.10
2019-03-28T08:51:54.923Z,18.10
2019-03-28T08:52:54.917Z,17.80
2019-03-28T08:53:54.883Z,18.40
2019-03-28T08:54:54.870Z,18.10
2019-03-28T08:55:54.873Z,18.60
2019-03-28T08:56:54.866Z,18.80
2019-03-28T08:57:54.845Z,20.00
2019-03-28T08:58:54.836Z,18.70
2019-03-28T08:59:54.828Z,19.50
2019-03-28T09:00:54.813Z,19.50
2019-03-28T09:01:54.815Z,20.00
2019-03-28T09:02:54.786Z,20.10
2019-03-28T09:03:54.776Z,19.80
2019-03-28T09:04:54.771Z,20.70
2019-03-28T09:05:54.778Z,21.00
2019-03-28T09:06:54.755Z,20.40
2019-03-28T09:07:54.751Z,19.80
2019-03-28T09:08:54.729Z,20.00
2019-03-28T09:09:54.719Z,20.40
2019-03-28T09:10:54.710Z,20.90
2019-03-28T09:11:54.704Z,20.80
2019-03-28T09:12:54.710Z,19.80
2019-03-28T09:13:54.686Z,20.70
2019-03-28T09:14:54.660Z,20.40
2019-03-28T09:15:54.661Z,20.20
2019-03-28T09:16:54.641Z,20.00
2019-03-28T09:17:54.633Z,19.50
2019-03-28T09:18:54.645Z,20.20
2019-03-28T09:19:54.621Z,20.40
2019-03-28T09:20:54.601Z,20.30
2019-03-28T09:21:54.590Z,19.70
2019-03-28T09:22:54.575Z,20.00
2019-03-28T09:23:54.586Z,19.20
2019-03-28T09:24:54.566Z,20.50
2019-03-28T09:25:54.575Z,20.60
2019-03-28T09:26:54.531Z,20.80
2019-03-28T09:27:54.522Z,19.90
2019-03-28T09:28:54.555Z,20.50
2019-03-28T09:29:54.506Z,18.80
2019-03-28T09:30:54.498Z,19.40
2019-03-28T09:31:54.487Z,20.70
2019-03-28T09:32:54.471Z,19.90
2019-03-28T09:33:54.461Z,19.20
2019-03-28T09:34:54.455Z,19.80
2019-03-28T09:35:54.449Z,21.00
2019-03-28T09:36:54.437Z,19.00
2019-03-28T09:37:54.418Z,20.40
2019-03-28T09:38:54.416Z,20.10
2019-03-28T09:39:54.394Z,19.80
2019-03-28T09:40:54.382Z,20.20
2019-03-28T09:41:54.387Z,20.40
2019-03-28T09:42:54.375Z,20.90
2019-03-28T09:43:55.879Z,21.40
2019-03-28T09:44:54.357Z,21.30
2019-03-28T09:45:54.331Z,21.70
2019-03-28T09:46:54.315Z,22.30
2019-03-28T09:47:54.314Z,22.10
2019-03-28T09:48:54.324Z,21.70
2019-03-28T09:49:54.325Z,21.60
2019-03-28T09:50:54.278Z,22.60
2019-03-28T09:51:54.276Z,22.40
2019-03-28T09:52:54.258Z,22.30
2019-03-28T09:53:54.255Z,21.50
2019-03-28T09:54:54.229Z,22.20
2019-03-28T09:55:54.224Z,22.00
2019-03-28T09:56:54.216Z,22.70
2019-03-28T09:57:54.205Z,23.70
2019-03-28T09:58:54.200Z,22.80
2019-03-28T09:59:54.184Z,22.90
2019-03-28T10:01:02.852Z,23.80
2019-03-28T10:01:55.157Z,24.10
2019-03-28T10:02:54.152Z,23.30
2019-03-28T10:03:54.153Z,23.10
2019-03-28T10:04:54.141Z,23.90
2019-03-28T10:05:54.112Z,22.40
2019-03-28T10:06:54.098Z,23.30
2019-03-28T10:07:54.088Z,23.20
2019-03-28T10:08:54.081Z,22.30
2019-03-28T10:09:54.143Z,22.50
2019-03-28T10:10:54.075Z,22.70
2019-03-28T10:11:54.069Z,21.80
2019-03-28T10:12:54.035Z,22.00
2019-03-28T10:13:54.028Z,22.10
2019-03-28T10:14:54.030Z,21.60
2019-03-28T10:15:57.156Z,21.10
2019-03-28T10:16:53.997Z,22.20
2019-03-28T10:17:54.817Z,21.30
2019-03-28T10:18:53.972Z,21.90
2019-03-28T10:19:53.958Z,20.30
2019-03-28T10:20:53.951Z,21.40
2019-03-28T10:21:53.953Z,21.20
2019-03-28T10:22:53.939Z,22.10
2019-03-28T10:23:53.929Z,21.10
2019-03-28T10:24:53.914Z,23.20
2019-03-28T10:25:53.894Z,22.30
2019-03-28T10:26:53.915Z,21.10
2019-03-28T10:27:53.879Z,21.00
2019-03-28T10:28:53.894Z,21.40
2019-03-28T10:29:53.868Z,22.40
2019-03-28T10:30:53.838Z,21.80
2019-03-28T10:31:53.851Z,21.60
2019-03-28T10:32:53.842Z,21.00
2019-03-28T10:33:53.825Z,21.60
2019-03-28T10:34:53.839Z,21.90
2019-03-28T10:35:53.822Z,21.40
2019-03-28T10:36:53.793Z,20.70
2019-03-28T10:37:53.802Z,21.00
2019-03-28T10:38:53.751Z,21.30
2019-03-28T10:39:53.748Z,20.10
2019-03-28T10:40:53.744Z,21.20
2019-03-28T10:41:54.730Z,20.60
2019-03-28T10:42:53.717Z,21.50
2019-03-28T10:43:53.709Z,21.40
2019-03-28T10:44:53.690Z,20.50
2019-03-28T10:45:53.694Z,20.20
2019-03-28T10:46:53.677Z,21.10
2019-03-28T10:47:53.913Z,20.00
2019-03-28T10:48:54.591Z,21.20
2019-03-28T10:49:53.637Z,20.50
2019-03-28T10:50:53.626Z,20.50
2019-03-28T10:51:53.612Z,19.50
2019-03-28T10:52:53.616Z,19.80
2019-03-28T10:53:53.611Z,20.50
2019-03-28T10:54:53.586Z,20.60
2019-03-28T10:55:53.576Z,20.70
2019-03-28T10:56:57.407Z,20.30
2019-03-28T10:57:53.550Z,19.90
2019-03-28T10:58:53.539Z,20.20
2019-03-28T10:59:53.553Z,19.20
2019-03-28T11:00:54.884Z,19.50
2019-03-28T11:01:53.506Z,19.40
2019-03-28T11:02:53.643Z,19.50
2019-03-28T11:03:53.486Z,18.80
2019-03-28T11:04:53.484Z,18.90
2019-03-28T11:05:53.464Z,18.50
2019-03-28T11:06:53.458Z,18.90
2019-03-28T11:07:53.454Z,17.90
2019-03-28T11:08:53.437Z,16.40
2019-03-28T11:09:53.437Z,18.70
2019-03-28T11:10:53.411Z,18.50
2019-03-28T11:11:53.398Z,21.30
2019-03-28T11:12:53.387Z,20.70
2019-03-28T11:13:53.386Z,20.60
2019-03-28T11:14:53.372Z,19.50
2019-03-28T11:15:53.369Z,19.20
2019-03-28T11:16:53.344Z,19.00
2019-03-28T11:17:53.337Z,19.60
2019-03-28T11:18:53.329Z,18.70
2019-03-28T11:19:56.032Z,17.30
2019-03-28T11:20:53.307Z,17.90
2019-03-28T11:21:53.304Z,18.30
2019-03-28T11:22:53.279Z,17.40
2019-03-28T11:23:53.292Z,17.30
2019-03-28T11:24:53.257Z,17.80
2019-03-28T11:25:53.252Z,17.00
2019-03-28T11:26:53.242Z,17.80
2019-03-28T11:27:53.246Z,15.10
2019-03-28T11:28:53.218Z,14.40
2019-03-28T11:29:53.204Z,13.30
2019-03-28T11:30:53.192Z,13.40
2019-03-28T11:31:53.183Z,14.80
2019-03-28T11:32:53.181Z,12.90
2019-03-28T11:33:53.159Z,10.80
2019-03-28T11:34:53.145Z,10.10
2019-03-28T11:35:53.128Z,10.90
2019-03-28T11:36:53.152Z,9.80
2019-03-28T11:37:53.142Z,9.50
2019-03-28T11:38:53.121Z,9.00
2019-03-28T11:39:53.094Z,9.10
2019-03-28T11:40:53.109Z,9.10
2019-03-28T11:41:53.073Z,9.50
2019-03-28T11:42:53.284Z,10.40
2019-03-28T11:43:53.043Z,10.60
2019-03-28T11:44:53.038Z,10.20
2019-03-28T11:45:53.029Z,12.30
2019-03-28T11:46:53.030Z,13.10
2019-03-28T11:47:53.018Z,13.30
2019-03-28T11:48:52.995Z,12.80
2019-03-28T11:49:52.992Z,13.50
2019-03-28T11:50:52.980Z,13.20
2019-03-28T11:51:52.971Z,12.90
2019-03-28T11:52:52.968Z,12.80
2019-03-28T11:53:52.947Z,13.40
2019-03-28T11:54:52.941Z,13.20
2019-03-28T11:55:52.919Z,13.00
2019-03-28T11:56:52.915Z,13.40
2019-03-28T11:57:52.902Z,12.10
2019-03-28T11:58:52.922Z,11.70
2019-03-28T11:59:52.905Z,11.20
2019-03-28T12:00:52.877Z,12.10
2019-03-28T12:01:59.913Z,11.00
2019-03-28T12:02:53.848Z,10.10
2019-03-28T12:03:52.856Z,10.10
2019-03-28T12:04:52.843Z,10.50
2019-03-28T12:05:53.265Z,10.90
2019-03-28T12:06:52.827Z,11.70
2019-03-28T12:07:52.790Z,10.00
2019-03-28T12:08:55.843Z,8.80
2019-03-28T12:09:52.786Z,7.90
2019-03-28T12:10:52.778Z,7.70
2019-03-28T12:11:53.167Z,7.00
2019-03-28T12:12:52.742Z,7.30
2019-03-28T12:13:52.729Z,7.80
2019-03-28T12:14:52.714Z,7.20
2019-03-28T12:15:52.712Z,7.50
2019-03-28T12:16:52.692Z,7.40
2019-03-28T12:17:52.686Z,7.60
2019-03-28T12:18:52.675Z,7.80
2019-03-28T12:19:52.671Z,7.20
2019-03-28T12:20:52.649Z,8.60
2019-03-28T12:21:52.640Z,7.90
2019-03-28T12:22:55.920Z,7.70
2019-03-28T12:23:52.621Z,7.70
2019-03-28T12:24:52.618Z,7.20
2019-03-28T12:25:52.600Z,8.60
2019-03-28T12:26:52.579Z,8.70
2019-03-28T12:27:52.569Z,8.90
2019-03-28T12:28:52.560Z,9.20
2019-03-28T12:29:52.584Z,8.70
2019-03-28T12:30:52.543Z,8.20
2019-03-28T12:31:52.532Z,7.90
2019-03-28T12:32:52.528Z,8.40
2019-03-28T12:33:52.504Z,7.60
2019-03-28T12:34:52.883Z,8.20
2019-03-28T12:35:52.695Z,8.30
2019-03-28T12:36:52.475Z,8.00
2019-03-28T12:37:52.481Z,7.50
2019-03-28T12:38:52.447Z,8.10
2019-03-28T12:39:52.434Z,8.50
2019-03-28T12:40:52.447Z,9.90
2019-03-28T12:41:52.419Z,9.20
2019-03-28T12:42:52.414Z,9.50
2019-03-28T12:43:52.395Z,9.40
2019-03-28T12:44:57.154Z,9.70
2019-03-28T12:45:53.379Z,9.70
2019-03-28T12:46:52.374Z,9.10
2019-03-28T12:47:52.348Z,8.70
2019-03-28T12:48:52.334Z,9.50
2019-03-28T12:49:52.331Z,8.90
2019-03-28T12:50:58.834Z,9.70
2019-03-28T12:51:53.318Z,9.90
2019-03-28T12:52:52.312Z,10.00
2019-03-28T12:53:52.286Z,9.60